Latest Coastal Weather Observations for Cape Borda

IDS60701

Issued at 10:55 pm CST Wednesday 17 September 2014 (issued every 10 minutes, with the page automatically refreshed every 10 minutes)

About coastal observations | Map of coastal stations | Coastal observations for SA | Marine services | Other Formats
Station Details ID: 022823 Name: CAPE BORDA Lat: -35.75 Lon: 136.60 Height: 158.0 m
Data from the previous 72 hours. | See also: Recent months at Cape Borda
Date/Time
CST
Temp

°C
Wind Pressure Rain
since 9am
mm
Weather Cloud Vis
km
Sea
Height
m
Swell
Dir
 
Speed
knots
Gust
knots
hPa Trend Height
m
Period
s
Dir
17/10:30pm 9.4 S 4 5 1025.5 - 0.0 - - - - - - -
17/10:00pm 9.4 S 7 8 1025.3 - 0.0 - - - - - - -
17/09:30pm 9.5 S 6 8 1025.2 - 0.0 - - - - - - -
17/09:00pm 9.4 S 6 7 1025.1 - 0.0 - - - - - - -
17/08:30pm 10.0 S 7 11 1024.8 - 0.0 - - - - - - -
17/08:00pm 8.6 S 6 8 1024.9 - 0.0 - - - - - - -
17/07:30pm 8.3 S 7 9 1024.6 - 0.0 - - - - - - -
17/07:00pm 8.2 S 7 10 1024.4 - 0.0 - - - - - - -
17/06:30pm 8.4 S 8 9 1024.4 - 0.0 - - - - - - -
17/06:00pm 9.5 S 7 9 1024.3 - 0.0 - - - - - - -
17/05:30pm 10.6 S 10 13 1023.9 - 0.0 - - - - - - -
17/05:00pm 12.0 S 10 14 1023.5 - 0.0 - - - - - - -
17/04:30pm 12.6 S 11 15 1023.2 - 0.0 - - - - - - -
17/04:00pm 12.9 SW 10 15 1022.9 - 0.0 - - - - - - -
17/03:30pm 13.3 SW 12 17 1022.9 - 0.0 - - - - - - -
17/03:00pm 13.7 SW 12 17 1023.1 R 0.0 Fine Mostly clear 25 1 4.7 9 SW
17/02:30pm 13.8 SW 13 19 1023.0 - 0.0 - - - - - - -
17/02:00pm 14.5 SW 13 18 1022.7 - 0.0 - - - - - - -
17/01:30pm 14.1 SW 13 19 1022.4 - 0.0 - - - - - - -
17/01:00pm 13.1 S 11 15 1022.5 - 0.0 - - - - - - -
17/12:30pm 14.1 S 11 15 1022.6 - 0.0 - - - - - - -
17/12:00pm 13.9 SW 14 20 1023.0 - 0.0 - - - - - - -
17/11:30am 12.8 SW 14 20 1022.7 - 0.0 - - - - - - -
17/11:00am 12.7 SSW 13 21 1022.6 - 0.0 - - - - - - -
17/10:30am 13.8 SW 13 18 1022.6 - 0.0 - - - - - - -
17/10:00am 13.4 SW 12 17 1022.5 - 0.0 - - - - - - -
17/09:30am 12.8 SW 13 18 1022.2 - 0.0 - - - - - - -
17/09:00am 12.4 SSW 14 20 1021.9 R 1.6 Fine Mostly clear 25 1 4.5 8 SW
17/08:30am 11.8 SW 13 18 1021.6 - 1.6 - - - - - - -
17/08:00am 11.1 SSW 11 16 1021.4 - 1.6 - - - - - - -
17/07:30am 10.4 SSW 11 18 1020.9 - 1.6 - - - - - - -
17/07:00am 11.1 SW 13 21 1020.3 - 1.6 - - - - - - -
17/06:30am 10.4 SSW 13 19 1020.0 - 1.6 - - - - - - -
17/06:00am 10.6 SW 13 21 1020.0 R 1.6 Drizzle Partly cloudy 25 1 4.6 8 SW
17/05:30am 10.5 SW 13 18 1019.4 - 1.4 - - - - - - -
17/05:00am 10.6 SW 12 19 1019.1 - 1.4 - - - - - - -
17/04:30am 10.5 SW 13 19 1019.0 - 1.4 - - - - - - -
17/04:00am 10.1 SW 12 18 1018.9 - 1.4 - - - - - - -
17/03:30am 10.7 SW 12 17 1018.8 - 1.4 - - - - - - -
17/03:00am 10.3 WSW 11 15 1018.8 - 1.4 - - - - - - -
17/02:30am 10.4 SW 14 20 1018.9 - 1.4 - - - - - - -
17/02:00am 10.3 WSW 9 13 1019.0 - 1.4 - - - - - - -
17/01:30am 9.7 WSW 11 16 1019.2 - 1.4 - - - - - - -
17/01:00am 11.3 WSW 12 17 1019.2 - 0.8 - - - - - - -
17/12:30am 11.0 WSW 13 19 1019.2 - 0.8 - - - - - - -
17/12:00am 11.3 WSW 15 22 1019.4 - 0.8 - - - - - - -
 
Date/Time
CST
Temp

°C
Wind Pressure Rain
since 9am
mm
Weather Cloud Vis
km
Sea
Height
m
Swell
Dir
 
Speed
knots
Gust
knots
hPa Trend Height
m
Period
s
Dir
16/11:30pm 10.5 W 8 12 1019.3 - 0.8 - - - - - - -
16/11:00pm 10.6 WSW 12 18 1019.2 - 0.8 - - - - - - -
16/10:30pm 11.6 W 13 19 1019.3 - 0.6 - - - - - - -
16/10:00pm 11.4 WSW 13 17 1019.4 - 0.6 - - - - - - -
16/09:30pm 11.5 WSW 12 17 1019.3 - 0.6 - - - - - - -
16/09:00pm 11.3 WSW 12 17 1019.4 - 0.6 - - - - - - -
16/08:30pm 11.2 WSW 12 17 1019.0 - 0.6 - - - - - - -
16/08:00pm 11.2 SW 12 17 1018.8 - 0.6 - - - - - - -
16/07:30pm 11.5 SW 13 19 1018.4 - 0.6 - - - - - - -
16/07:00pm 11.3 SW 11 17 1017.9 - 0.6 - - - - - - -
16/06:30pm 11.3 SW 13 19 1017.7 - 0.6 - - - - - - -
16/06:00pm 11.3 SW 12 17 1017.9 - 0.6 - - - - - - -
16/05:30pm 11.2 SW 15 21 1017.5 - 0.6 - - - - - - -
16/05:00pm 11.6 SW 13 21 1017.3 - 0.6 - - - - - - -
16/04:30pm 12.1 WSW 13 21 1017.2 - 0.6 - - - - - - -
16/04:00pm 12.4 SW 15 21 1017.0 - 0.6 - - - - - - -
16/03:30pm 12.8 SW 15 21 1016.8 - 0.6 - - - - - - -
16/03:00pm 13.0 SW 16 21 1016.9 F 0.6 Fine Mostly cloudy 25 1 3.9 7 SW
16/02:30pm 13.7 SW 14 19 1016.7 - 0.6 - - - - - - -
16/02:00pm 13.1 SW 16 22 1016.7 - 0.6 - - - - - - -
16/01:30pm 13.4 WSW 16 24 1016.8 - 0.6 - - - - - - -
16/01:00pm 14.0 WSW 16 21 1017.0 - 0.6 - - - - - - -
16/12:30pm 14.3 WSW 16 22 1017.4 - 0.6 - - - - - - -
16/12:00pm 14.5 WSW 15 21 1017.8 - 0.6 - - - - - - -
16/11:30am 13.7 WSW 13 19 1018.1 - 0.6 - - - - - - -
16/11:00am 13.4 SW 14 19 1018.1 - 0.6 - - - - - - -
16/10:30am 11.9 SW 15 21 1018.1 - 0.6 - - - - - - -
16/10:00am 11.8 WSW 10 18 1018.2 - 0.6 - - - - - - -
16/09:30am 11.6 WSW 9 13 1018.3 - 0.6 - - - - - - -
16/09:00am 13.2 W 8 10 1018.4 R 0.4 Distant precip. Mostly cloudy 20 <0.5 3.3 7 SW
16/08:30am 12.1 W 11 19 1018.2 - 0.4 - - - - - - -
16/08:00am 12.5 W 10 13 1018.0 - 0.4 - - - - - - -
16/07:30am 12.4 W 9 14 1017.9 - 0.4 - - - - - - -
16/07:00am 12.2 W 9 12 1017.7 - 0.4 - - - - - - -
16/06:30am 11.6 WSW 9 14 1017.6 - 0.4 - - - - - - -
16/06:00am 11.9 WSW 10 14 1017.4 S 0.4 Fine Partly cloudy 20 1 4.0 8 SW
16/05:30am 11.9 WSW 9 13 1017.1 - 0.4 - - - - - - -
16/05:00am 12.1 WSW 10 14 1017.1 - 0.4 - - - - - - -
16/04:30am 11.9 WSW 11 16 1017.0 - 0.4 - - - - - - -
16/04:00am 11.5 WSW 9 13 1017.1 - 0.4 - - - - - - -
16/03:30am 11.5 WSW 10 15 1016.9 - 0.4 - - - - - - -
16/03:00am 11.8 SW 9 13 1017.1 - 0.4 - - - - - - -
16/02:30am 11.4 SW 11 16 1017.0 - 0.4 - - - - - - -
16/02:00am 11.2 SW 9 12 1017.3 - 0.4 - - - - - - -
16/01:30am 11.3 SW 9 13 1017.5 - 0.4 - - - - - - -
16/01:00am 11.6 SW 10 15 1017.7 - 0.4 - - - - - - -
16/12:30am 11.7 SW 10 14 1017.9 - 0.4 - - - - - - -
16/12:00am 10.8 SW 9 12 1018.0 - 0.4 - - - - - - -
 
Date/Time
CST
Temp

°C
Wind Pressure Rain
since 9am
mm
Weather Cloud Vis
km
Sea
Height
m
Swell
Dir
 
Speed
knots
Gust
knots
hPa Trend Height
m
Period
s
Dir
15/11:30pm 11.0 SW 9 12 1018.1 - 0.4 - - - - - - -
15/11:00pm 11.4 SW 10 14 1018.1 - 0.4 - - - - - - -
15/10:30pm 11.5 SW 10 14 1018.2 - 0.4 - - - - - - -
15/10:00pm 11.6 SSW 10 15 1018.4 - 0.4 - - - - - - -
15/09:30pm 11.2 SSW 10 14 1018.4 - 0.4 - - - - - - -
15/09:00pm 10.8 SSW 9 11 1018.3 - 0.2 - - - - - - -
15/08:30pm 10.7 S 9 12 1018.2 - 0.2 - - - - - - -
15/08:00pm 12.5 SW 12 18 1018.0 - 0.0 - - - - - - -
15/07:30pm 12.2 SSW 12 17 1018.0 - 0.0 - - - - - - -
15/07:00pm 12.3 SSW 13 19 1017.6 - 0.0 - - - - - - -
15/06:30pm 12.8 SW 13 19 1017.4 - 0.0 - - - - - - -
15/06:00pm 13.0 SSW 15 21 1017.0 - 0.0 - - - - - - -
15/05:30pm 13.4 SSW 14 20 1016.4 - 0.0 - - - - - - -
15/05:00pm 14.1 SSW 16 23 1016.2 - 0.0 - - - - - - -
15/04:30pm 14.6 SSW 15 22 1016.0 - 0.0 - - - - - - -
15/04:00pm 15.1 SSW 16 23 1015.7 - 0.0 - - - - - - -
15/03:30pm 15.1 SSW 18 26 1015.7 - 0.0 - - - - - - -
15/03:00pm 15.6 SW 18 24 1015.8 R 0.0 Fine Mostly clear 15 2 5.6 8 SW
15/02:30pm 15.7 SSW 19 27 1015.5 - 0.0 - - - - - - -
15/02:00pm 16.1 SSW 18 23 1015.4 - 0.0 - - - - - - -
15/01:30pm 15.5 SSW 18 26 1015.4 - 0.0 - - - - - - -
15/01:16pm 15.3 S 16 26 1015.5 - 0.0 - - - - - - -
15/01:00pm 14.9 SSW 17 24 1015.4 - 0.0 - - - - - - -
15/12:30pm 16.3 SSW 16 23 1015.3 - 0.0 - - - - - - -
15/12:00pm 15.5 SSW 17 21 1015.2 - 0.0 - - - - - - -
15/11:37am 15.7 S 16 26 1015.2 - 0.0 - - - - - - -
15/11:30am 15.2 S 17 26 1015.1 - 0.0 - - - - - - -
15/11:00am 15.1 S 18 26 1015.1 - 0.0 - - - - - - -
15/10:30am 15.7 S 16 24 1015.0 - 0.0 - - - - - - -
15/10:00am 14.6 S 16 24 1014.9 - 0.0 - - - - - - -
15/09:30am 14.0 S 17 24 1014.7 - 0.0 - - - - - - -
15/09:00am 13.8 S 18 26 1014.2 R 0.0 Fine Cloudy 12 2 4.5 7 SW
15/08:30am 13.6 S 19 27 1013.3 - 0.0 - - - - - - -
15/08:00am 13.3 S 20 30 1013.2 - 0.0 - - - - - - -
15/07:30am 13.2 S 20 30 1012.7 - 0.0 - - - - - - -
15/07:12am 12.8 S 17 27 1012.3 - 0.0 - - - - - - -
15/07:00am 12.7 S 20 28 1012.1 - 0.0 - - - - - - -
15/06:35am 12.6 S 18 29 1011.6 - 0.0 - - - - - - -
15/06:30am 12.6 S 17 25 1011.5 - 0.0 - - - - - - -
15/06:07am 12.5 S 19 29 1011.2 - 0.0 - - - - - - -
15/06:00am 12.4 S 18 27 1011.2 - 0.0 - - - - - - -
15/05:30am 12.5 S 21 32 1010.5 - 0.0 - - - - - - -
15/05:15am 12.5 S 18 28 1010.4 - 0.0 - - - - - - -
15/05:00am 12.5 S 17 24 1010.2 - 0.0 - - - - - - -
15/04:30am 12.5 S 17 24 1010.0 - 0.0 - - - - - - -
15/04:00am 12.5 S 19 27 1009.5 - 0.0 - - - - - - -
15/03:30am 12.8 SSW 18 24 1009.3 - 0.0 - - - - - - -
15/03:00am 12.9 S 15 22 1009.3 - 0.0 - - - - - - -
15/02:30am 12.5 S 13 18 1009.2 - 0.0 - - - - - - -
15/02:00am 11.8 S 11 15 1009.4 - 0.0 - - - - - - -
15/01:30am 10.6 S 9 11 1009.6 - 0.0 - - - - - - -
15/01:00am 10.4 S 8 11 1009.8 - 0.0 - - - - - - -
15/12:30am 10.9 SSE 6 7 1010.1 - 0.0 - - - - - - -
15/12:00am 10.9 SE 7 8 1010.4 - 0.0 - - - - - - -
 
Date/Time
CST
Temp

°C
Wind Pressure Rain
since 9am
mm
Weather Cloud Vis
km
Sea
Height
m
Swell
Dir
 
Speed
knots
Gust
knots
hPa Trend Height
m
Period
s
Dir
14/11:30pm 10.8 SE 6 8 1010.7 - 0.0 - - - - - - -
14/11:00pm 10.5 ESE 8 10 1011.0 - 0.0 - - - - - - -

Other Formats:

Comma delimited format used in spreadsheet applications
http://www.bom.gov.au/fwo/IDS60701/IDS60701.95805.axf

JavaScript Object Notation format (JSON) in row-major order
http://www.bom.gov.au/fwo/IDS60701/IDS60701.95805.json